createdAt,value
2023-05-21T00:02:51.718Z,18.48
2023-05-21T00:05:52.963Z,18.15
2023-05-21T00:08:53.772Z,17.58
2023-05-21T00:11:55.018Z,16.67
2023-05-21T00:14:56.307Z,16.48
2023-05-21T00:17:57.681Z,17.45
2023-05-21T00:20:59.549Z,16.98
2023-05-21T00:24:00.632Z,17.85
2023-05-21T00:27:01.899Z,17.23
2023-05-21T00:30:03.961Z,17.83
2023-05-21T00:33:04.936Z,18.25
2023-05-21T00:36:07.691Z,16.98
2023-05-21T00:39:09.146Z,17.73
2023-05-21T00:42:10.755Z,15.38
2023-05-21T00:45:11.848Z,17.02
2023-05-21T00:48:15.019Z,18.30
2023-05-21T00:51:18.889Z,19.50
2023-05-21T00:54:20.115Z,19.08
2023-05-21T00:57:25.549Z,21.40
2023-05-21T01:00:28.480Z,17.63
2023-05-21T01:03:38.838Z,18.45
2023-05-21T01:06:40.612Z,17.45
2023-05-21T01:09:43.759Z,19.40
2023-05-21T01:12:48.062Z,19.92
2023-05-21T01:15:51.300Z,21.15
2023-05-21T01:18:54.178Z,23.75
2023-05-21T01:22:06.477Z,25.80
2023-05-21T01:25:09.131Z,22.75
2023-05-21T01:28:10.497Z,23.38
2023-05-21T01:31:26.606Z,22.77
2023-05-21T01:34:40.282Z,23.70
2023-05-21T01:38:29.678Z,24.08
2023-05-21T01:41:37.540Z,25.27
2023-05-21T01:44:40.320Z,27.98
2023-05-21T01:47:44.432Z,28.13
2023-05-21T01:50:46.323Z,27.38
2023-05-21T01:53:47.594Z,24.77
2023-05-21T01:56:49.926Z,25.45
2023-05-21T01:59:53.591Z,25.50
2023-05-21T02:02:54.820Z,27.27
2023-05-21T02:05:56.346Z,25.98
2023-05-21T02:08:57.506Z,22.63
2023-05-21T02:11:58.853Z,22.10
2023-05-21T02:15:00.058Z,22.33
2023-05-21T02:18:01.353Z,21.00
2023-05-21T02:21:02.823Z,20.88
2023-05-21T02:24:04.443Z,20.20
2023-05-21T02:27:06.695Z,20.92
2023-05-21T02:30:13.766Z,22.33
2023-05-21T02:33:16.943Z,22.30
2023-05-21T02:36:19.201Z,20.92
2023-05-21T02:39:20.364Z,20.67
2023-05-21T02:42:23.514Z,22.30
2023-05-21T02:45:24.695Z,22.42
2023-05-21T02:48:26.705Z,23.08
2023-05-21T02:51:27.645Z,23.98
2023-05-21T02:54:28.997Z,23.30
2023-05-21T02:57:30.463Z,23.73
2023-05-21T03:00:31.761Z,21.52
2023-05-21T03:03:34.241Z,22.45
2023-05-21T03:06:35.474Z,23.35
2023-05-21T03:09:37.138Z,24.38
2023-05-21T03:12:38.293Z,26.63
2023-05-21T03:15:39.763Z,26.00
2023-05-21T03:18:41.286Z,25.00
2023-05-21T03:21:43.361Z,26.17
2023-05-21T03:24:45.538Z,26.15
2023-05-21T03:27:48.096Z,25.60
2023-05-21T03:31:16.792Z,24.95
2023-05-21T03:34:22.694Z,26.20
2023-05-21T03:37:24.108Z,25.77
2023-05-21T03:40:25.376Z,28.45
2023-05-21T03:43:26.719Z,25.25
2023-05-21T03:46:28.567Z,27.35
2023-05-21T03:49:50.121Z,25.98
2023-05-21T03:52:51.319Z,25.20
2023-05-21T03:55:55.572Z,24.63
2023-05-21T03:58:58.571Z,21.90
2023-05-21T04:01:59.808Z,21.48
2023-05-21T04:05:00.683Z,21.35
2023-05-21T04:08:01.997Z,22.58
2023-05-21T04:11:03.166Z,24.33
2023-05-21T04:14:04.680Z,21.45
2023-05-21T04:17:06.490Z,21.75
2023-05-21T04:20:08.626Z,22.65
2023-05-21T04:23:10.724Z,24.38
2023-05-21T04:26:13.030Z,24.02
2023-05-21T04:29:21.406Z,21.95
2023-05-21T04:35:26.328Z,23.35
2023-05-21T04:38:27.803Z,22.98
2023-05-21T04:41:29.413Z,25.20
2023-05-21T04:44:30.772Z,22.63
2023-05-21T04:47:35.963Z,23.05
2023-05-21T04:50:38.007Z,22.77
2023-05-21T04:53:39.434Z,22.38
2023-05-21T04:56:40.826Z,22.10
2023-05-21T04:59:43.862Z,22.33
2023-05-21T05:02:45.381Z,21.45
2023-05-21T05:05:47.423Z,22.48
2023-05-21T05:08:48.837Z,24.02
2023-05-21T05:11:51.509Z,23.30
2023-05-21T05:14:52.789Z,21.38
2023-05-21T05:17:54.903Z,20.98
2023-05-21T05:20:56.350Z,21.35
2023-05-21T05:23:57.554Z,23.98
2023-05-21T05:27:01.951Z,22.08
2023-05-21T05:30:02.961Z,23.27
2023-05-21T05:33:05.891Z,23.02
2023-05-21T05:36:07.603Z,22.52
2023-05-21T05:39:09.121Z,22.05
2023-05-21T05:42:10.293Z,20.90
2023-05-21T05:45:12.091Z,22.80
2023-05-21T05:48:14.466Z,22.52
2023-05-21T05:51:17.382Z,22.27
2023-05-21T05:54:19.725Z,21.80
2023-05-21T05:57:21.029Z,22.95
2023-05-21T06:00:34.071Z,21.67
2023-05-21T06:03:37.586Z,22.13
2023-05-21T06:07:00.762Z,21.52
2023-05-21T06:10:01.676Z,19.92
2023-05-21T06:13:03.451Z,20.75
2023-05-21T06:16:05.195Z,19.42
2023-05-21T06:19:07.379Z,19.52
2023-05-21T06:22:08.657Z,18.23
2023-05-21T06:25:10.951Z,19.00
2023-05-21T06:28:12.526Z,19.27
2023-05-21T06:31:13.896Z,19.83
2023-05-21T06:34:16.919Z,18.58
2023-05-21T06:37:26.522Z,18.60
2023-05-21T06:40:28.460Z,17.55
2023-05-21T06:43:31.931Z,18.48
2023-05-21T06:50:00.454Z,17.08
2023-05-21T06:53:01.759Z,19.13
2023-05-21T06:56:03.850Z,18.63
2023-05-21T06:59:11.228Z,17.90
2023-05-21T07:02:12.392Z,17.90
2023-05-21T07:05:13.656Z,17.88
2023-05-21T07:08:15.527Z,17.20
2023-05-21T07:11:16.931Z,17.42
2023-05-21T07:14:18.424Z,16.05
2023-05-21T07:17:19.807Z,17.17
2023-05-21T07:20:21.243Z,16.17
2023-05-21T07:23:24.877Z,16.30
2023-05-21T07:26:26.821Z,16.38
2023-05-21T07:29:28.088Z,16.33
2023-05-21T07:32:29.483Z,14.88
2023-05-21T07:35:31.363Z,14.40
2023-05-21T07:38:32.912Z,14.77
2023-05-21T07:41:34.081Z,13.43
2023-05-21T07:44:39.043Z,13.18
2023-05-21T07:47:41.015Z,12.55
2023-05-21T07:50:42.452Z,12.93
2023-05-21T07:53:43.800Z,13.93
2023-05-21T07:56:47.426Z,14.27
2023-05-21T08:00:02.944Z,14.05
2023-05-21T08:03:05.841Z,13.90
2023-05-21T08:06:07.058Z,13.55
2023-05-21T08:09:08.459Z,13.15
2023-05-21T08:12:09.873Z,12.90
2023-05-21T08:15:11.557Z,13.25
2023-05-21T08:18:18.170Z,13.63
2023-05-21T08:21:21.180Z,13.95
2023-05-21T08:24:22.194Z,14.30
2023-05-21T08:27:23.480Z,13.85
2023-05-21T08:30:25.830Z,13.32
2023-05-21T08:33:28.595Z,14.15
2023-05-21T08:36:29.643Z,16.00
2023-05-21T08:39:35.911Z,15.32
2023-05-21T08:42:45.836Z,13.43
2023-05-21T08:45:56.207Z,13.35
2023-05-21T08:49:03.953Z,13.15
2023-05-21T08:52:07.655Z,13.75
2023-05-21T08:55:10.743Z,14.32
2023-05-21T08:58:14.119Z,13.52
2023-05-21T09:01:19.787Z,14.15
2023-05-21T09:04:24.484Z,14.27
2023-05-21T09:07:29.418Z,13.82
2023-05-21T09:10:51.409Z,14.27
2023-05-21T09:13:58.120Z,14.40
2023-05-21T09:17:07.059Z,15.02
2023-05-21T09:20:16.584Z,13.73
2023-05-21T09:23:29.471Z,13.88
2023-05-21T09:26:30.898Z,14.25
2023-05-21T09:29:36.318Z,12.63
2023-05-21T09:32:39.555Z,14.05
2023-05-21T09:35:47.645Z,13.60
2023-05-21T09:38:52.328Z,12.98
2023-05-21T09:41:53.701Z,13.13
2023-05-21T09:44:55.290Z,12.27
2023-05-21T09:47:57.274Z,13.20
2023-05-21T09:51:18.097Z,13.38
2023-05-21T09:54:19.387Z,12.20
2023-05-21T09:57:27.256Z,13.20
2023-05-21T10:00:29.375Z,12.15
2023-05-21T10:03:33.867Z,10.85
2023-05-21T10:06:44.422Z,10.25
2023-05-21T10:09:50.724Z,10.80
2023-05-21T10:13:00.816Z,9.95
2023-05-21T10:16:05.667Z,11.40
2023-05-21T10:19:11.215Z,11.07
2023-05-21T10:22:13.651Z,11.88
2023-05-21T10:25:15.885Z,11.50
2023-05-21T10:28:21.275Z,10.80
2023-05-21T10:31:23.871Z,11.27
2023-05-21T10:34:25.457Z,12.02
2023-05-21T10:37:28.128Z,10.45
2023-05-21T10:40:29.104Z,9.80
2023-05-21T10:43:49.656Z,9.55
2023-05-21T10:47:40.774Z,9.48
2023-05-21T10:50:58.473Z,9.00
2023-05-21T10:54:23.743Z,8.95
2023-05-21T10:58:13.865Z,8.88
2023-05-21T11:01:16.701Z,10.90
2023-05-21T11:04:22.293Z,9.18
2023-05-21T11:07:26.618Z,8.98
2023-05-21T11:10:41.741Z,5.32
2023-05-21T11:13:49.555Z,5.20
2023-05-21T11:16:50.896Z,4.57
2023-05-21T11:19:52.048Z,4.40
2023-05-21T11:22:53.144Z,4.03
2023-05-21T11:26:03.896Z,4.75
2023-05-21T11:29:09.665Z,5.45
2023-05-21T11:32:13.229Z,4.50
2023-05-21T11:35:14.601Z,4.05
2023-05-21T11:38:15.588Z,3.35
2023-05-21T11:41:22.333Z,3.65
2023-05-21T11:44:44.740Z,3.65
2023-05-21T11:47:48.552Z,3.75
2023-05-21T11:50:52.347Z,4.55
2023-05-21T11:53:53.871Z,3.80
2023-05-21T11:56:56.139Z,4.45
2023-05-21T12:00:01.762Z,4.75
2023-05-21T12:03:03.593Z,4.60
2023-05-21T12:06:08.699Z,3.88
2023-05-21T12:09:14.119Z,5.13
2023-05-21T12:12:22.644Z,4.97
2023-05-21T12:15:26.508Z,4.38
2023-05-21T12:18:27.411Z,3.67
2023-05-21T12:21:30.538Z,3.92
2023-05-21T12:24:33.514Z,4.30
2023-05-21T12:27:37.338Z,4.07
2023-05-21T12:30:38.835Z,3.65
2023-05-21T12:33:40.099Z,4.65
2023-05-21T12:36:46.456Z,4.85
2023-05-21T12:39:50.408Z,4.63
2023-05-21T12:42:52.030Z,4.40
2023-05-21T12:45:53.982Z,4.30
2023-05-21T12:48:55.878Z,4.35
2023-05-21T12:51:59.970Z,4.15
2023-05-21T12:55:01.254Z,3.92
2023-05-21T12:58:08.501Z,4.00
2023-05-21T13:01:12.705Z,4.50
2023-05-21T13:04:13.888Z,4.75
2023-05-21T13:07:19.156Z,4.30
2023-05-21T13:10:20.208Z,4.28
2023-05-21T13:13:21.308Z,4.65
2023-05-21T13:16:23.974Z,4.10
2023-05-21T13:19:25.302Z,4.10
2023-05-21T13:22:26.708Z,3.83
2023-05-21T13:25:29.335Z,4.15
2023-05-21T13:28:30.472Z,4.22
2023-05-21T13:31:31.935Z,3.60
2023-05-21T13:34:33.201Z,3.40
2023-05-21T13:37:38.420Z,3.60
2023-05-21T13:40:39.449Z,3.90
2023-05-21T13:43:43.575Z,3.60
2023-05-21T13:46:45.394Z,3.97
2023-05-21T13:49:46.777Z,4.13
2023-05-21T13:52:47.694Z,4.03
2023-05-21T13:55:49.262Z,4.72
2023-05-21T13:58:50.395Z,4.55
2023-05-21T14:01:52.571Z,4.85
2023-05-21T14:04:54.149Z,5.22
2023-05-21T14:07:55.834Z,5.03
2023-05-21T14:10:57.914Z,5.15
2023-05-21T14:13:59.610Z,4.60
2023-05-21T14:17:00.891Z,4.85
2023-05-21T14:20:02.018Z,5.40
2023-05-21T14:23:03.273Z,5.35
2023-05-21T14:26:04.298Z,4.88
2023-05-21T14:29:05.312Z,6.10
2023-05-21T14:32:07.536Z,5.68
2023-05-21T14:35:08.746Z,5.30
2023-05-21T14:38:10.729Z,5.63
2023-05-21T14:41:12.264Z,5.72
2023-05-21T14:44:13.146Z,6.20
2023-05-21T14:47:13.916Z,5.43
2023-05-21T14:50:16.298Z,5.57
2023-05-21T14:53:18.966Z,5.72
2023-05-21T14:56:22.253Z,4.93
2023-05-21T14:59:23.347Z,4.47
2023-05-21T15:02:24.737Z,4.30
2023-05-21T15:05:28.132Z,3.85
2023-05-21T15:08:29.273Z,3.25
2023-05-21T15:11:30.520Z,3.53
2023-05-21T15:14:31.669Z,4.38
2023-05-21T15:17:33.723Z,4.13
2023-05-21T15:20:34.630Z,4.57
2023-05-21T15:23:35.764Z,4.25
2023-05-21T15:26:36.523Z,4.47
2023-05-21T15:29:39.201Z,4.30
2023-05-21T15:32:40.292Z,4.00
2023-05-21T15:35:41.738Z,4.05
2023-05-21T15:38:43.032Z,4.00
2023-05-21T15:41:44.902Z,4.13
2023-05-21T15:44:45.785Z,4.35
2023-05-21T15:47:47.067Z,3.92
2023-05-21T15:50:49.726Z,3.97
2023-05-21T15:53:51.505Z,4.45
2023-05-21T15:56:52.679Z,4.47
2023-05-21T15:59:53.836Z,4.18
2023-05-21T16:02:55.428Z,4.03
2023-05-21T16:05:56.596Z,4.03
2023-05-21T16:08:58.135Z,3.97
2023-05-21T16:11:59.318Z,4.40
2023-05-21T16:15:00.914Z,4.90
2023-05-21T16:18:02.237Z,4.25
2023-05-21T16:21:03.418Z,3.88
2023-05-21T16:24:04.977Z,3.95
2023-05-21T16:27:06.495Z,4.20
2023-05-21T16:30:08.726Z,4.82
2023-05-21T16:33:10.316Z,4.28
2023-05-21T16:36:11.293Z,4.57
2023-05-21T16:39:12.175Z,4.55
2023-05-21T16:42:13.538Z,4.30
2023-05-21T16:45:20.711Z,4.40
2023-05-21T16:48:21.858Z,5.10
2023-05-21T16:51:23.331Z,4.85
2023-05-21T16:54:24.788Z,4.97
2023-05-21T16:57:25.775Z,4.65
2023-05-21T17:00:27.747Z,4.47
2023-05-21T17:03:32.172Z,4.93
2023-05-21T17:06:34.110Z,4.75
2023-05-21T17:09:35.457Z,4.72
2023-05-21T17:12:36.868Z,4.40
2023-05-21T17:15:37.955Z,4.55
2023-05-21T17:18:39.860Z,4.82
2023-05-21T17:21:41.101Z,5.15
2023-05-21T17:24:42.324Z,5.15
2023-05-21T17:27:43.210Z,5.32
2023-05-21T17:30:44.009Z,5.55
2023-05-21T17:33:45.246Z,4.93
2023-05-21T17:36:46.458Z,4.80
2023-05-21T17:39:47.439Z,5.20
2023-05-21T17:42:48.809Z,5.97
2023-05-21T17:45:50.111Z,5.68
2023-05-21T17:48:51.575Z,5.68
2023-05-21T17:51:53.693Z,5.80
2023-05-21T17:54:55.036Z,5.38
2023-05-21T17:57:56.309Z,5.65
2023-05-21T18:00:57.937Z,5.78
2023-05-21T18:03:59.414Z,5.70
2023-05-21T18:07:00.444Z,5.55
2023-05-21T18:10:01.389Z,5.45
2023-05-21T18:13:02.476Z,5.97
2023-05-21T18:16:03.264Z,4.85
2023-05-21T18:19:07.214Z,5.47
2023-05-21T18:22:08.687Z,5.82
2023-05-21T18:25:10.451Z,5.80
2023-05-21T18:28:12.040Z,5.65
2023-05-21T18:31:13.184Z,6.00
2023-05-21T18:34:15.740Z,6.45
2023-05-21T18:37:17.288Z,6.60
2023-05-21T18:40:18.386Z,6.35
2023-05-21T18:43:19.553Z,6.38
2023-05-21T18:46:20.378Z,6.72
2023-05-21T18:49:21.914Z,6.25
2023-05-21T18:52:22.751Z,6.72
2023-05-21T18:55:24.409Z,6.07
2023-05-21T18:58:25.406Z,6.13
2023-05-21T19:01:27.067Z,6.35
2023-05-21T19:04:28.945Z,6.38
2023-05-21T19:07:30.203Z,6.45
2023-05-21T19:10:31.000Z,6.88
2023-05-21T19:13:32.392Z,6.15
2023-05-21T19:16:33.270Z,6.40
2023-05-21T19:19:34.695Z,6.68
2023-05-21T19:22:37.422Z,5.90
2023-05-21T19:25:38.798Z,6.13
2023-05-21T19:28:40.697Z,6.40
2023-05-21T19:31:42.998Z,5.50
2023-05-21T19:34:44.040Z,5.82
2023-05-21T19:37:45.097Z,6.85
2023-05-21T19:40:46.415Z,7.20
2023-05-21T19:43:47.343Z,5.97
2023-05-21T19:46:50.117Z,6.35
2023-05-21T19:49:51.246Z,6.07
2023-05-21T19:52:53.703Z,6.88
2023-05-21T19:55:54.912Z,6.15
2023-05-21T19:58:55.974Z,6.32
2023-05-21T20:01:57.302Z,6.20
2023-05-21T20:04:59.289Z,6.53
2023-05-21T20:08:00.319Z,6.25
2023-05-21T20:11:01.333Z,6.50
2023-05-21T20:14:02.644Z,6.15
2023-05-21T20:17:06.205Z,6.03
2023-05-21T20:20:10.541Z,6.25
2023-05-21T20:23:11.385Z,5.78
2023-05-21T20:26:14.215Z,6.32
2023-05-21T20:29:15.543Z,5.85
2023-05-21T20:32:16.664Z,6.05
2023-05-21T20:35:17.525Z,6.20
2023-05-21T20:38:18.445Z,6.43
2023-05-21T20:41:20.331Z,6.70
2023-05-21T20:44:22.607Z,6.65
2023-05-21T20:47:23.842Z,6.68
2023-05-21T20:50:26.266Z,6.35
2023-05-21T20:53:27.858Z,6.75
2023-05-21T20:56:41.473Z,6.95
2023-05-21T20:59:43.573Z,5.75
2023-05-21T21:02:44.599Z,6.53
2023-05-21T21:05:45.802Z,6.82
2023-05-21T21:08:46.663Z,6.85
2023-05-21T21:11:48.451Z,8.32
2023-05-21T21:14:49.358Z,7.70
2023-05-21T21:17:50.125Z,8.30
2023-05-21T21:20:51.615Z,7.68
2023-05-21T21:23:52.959Z,7.82
2023-05-21T21:26:54.378Z,7.70
2023-05-21T21:29:55.574Z,7.40
2023-05-21T21:32:56.912Z,6.13
2023-05-21T21:35:58.105Z,6.30
2023-05-21T21:38:59.139Z,6.40
2023-05-21T21:42:00.799Z,6.25
2023-05-21T21:45:02.105Z,6.53
2023-05-21T21:48:03.532Z,5.88
2023-05-21T21:51:04.708Z,5.30
2023-05-21T21:54:06.148Z,5.40
2023-05-21T21:57:07.389Z,5.82
2023-05-21T22:00:11.589Z,6.03
2023-05-21T22:03:14.653Z,5.85
2023-05-21T22:06:16.373Z,5.80
2023-05-21T22:09:17.853Z,5.32
2023-05-21T22:12:19.192Z,5.28
2023-05-21T22:15:28.920Z,4.95
2023-05-21T22:18:40.789Z,7.35
2023-05-21T22:21:43.497Z,6.32
2023-05-21T22:24:44.792Z,6.55
2023-05-21T22:27:46.204Z,6.22
2023-05-21T22:30:47.618Z,6.28
2023-05-21T22:33:48.730Z,6.90
2023-05-21T22:36:49.683Z,7.57
2023-05-21T22:39:51.036Z,8.68
2023-05-21T22:42:52.438Z,7.68
2023-05-21T22:45:53.374Z,9.48
2023-05-21T22:48:54.714Z,8.20
2023-05-21T22:51:56.014Z,9.38
2023-05-21T22:54:58.153Z,9.50
2023-05-21T22:57:59.441Z,9.50
2023-05-21T23:01:00.412Z,10.05
2023-05-21T23:04:01.789Z,9.35
2023-05-21T23:07:02.824Z,9.63
2023-05-21T23:10:03.781Z,9.40
2023-05-21T23:13:05.142Z,9.15
2023-05-21T23:16:07.522Z,8.60
2023-05-21T23:19:08.603Z,9.25
2023-05-21T23:22:10.229Z,6.90
2023-05-21T23:25:11.494Z,6.82
2023-05-21T23:28:12.683Z,6.18
2023-05-21T23:31:13.830Z,6.07
2023-05-21T23:34:14.975Z,5.80
2023-05-21T23:37:16.630Z,7.40
2023-05-21T23:40:17.881Z,7.82
2023-05-21T23:43:19.235Z,7.75
2023-05-21T23:46:20.313Z,8.48
2023-05-21T23:49:21.401Z,7.88
2023-05-21T23:52:24.289Z,8.68
2023-05-21T23:55:25.162Z,7.35
2023-05-21T23:58:26.108Z,8.32
